ADDS METAR Data INFO
IDs: Format: Raw Decoded Include TAF

Data at: 2250 UTC 22 Jun 2018

KPEO 222153Z AUTO 15009KT 10SM CLR 24/16 A2993 RMK AO2 SLP132 T02440156
KPEO 222053Z AUTO 13010KT 10SM BKN032 23/16 A2994 RMK AO2 SLP136 T02330156 56008
KPEO 221953Z AUTO 13009KT 10SM BKN034 24/16 A2994 RMK AO2 SLP136 T02390161
KPEO 221943Z AUTO 13008KT 10SM BKN032 23/16 A2995 RMK AO2 T02330161
KPEO 221935Z AUTO 15008KT 10SM BKN029 BKN035 23/16 A2995 RMK AO2 T02330161
KPEO 221853Z AUTO 14009KT 10SM CLR 23/16 A2996 RMK AO2 SLP143 T02330161
KPEO 221753Z AUTO 00000KT 10SM CLR 22/14 A2997 RMK AO2 SLP146 T02170139 10222 20133 57007
KPEO 221653Z AUTO 00000KT 10SM CLR 22/12 A2998 RMK AO2 SLP148 T02170122
KPEO 221553Z AUTO VRB03KT 10SM CLR 22/12 A2998 RMK AO2 SLP148 T02170122
KPEO 221453Z AUTO VRB05KT 10SM CLR 20/11 A2999 RMK AO2 SLP152 T02000106 58001
KPEO 221353Z AUTO VRB04KT 10SM CLR 17/10 A3000 RMK AO2 SLP156 T01720100
KPEO 221253Z AUTO 00000KT 10SM CLR 15/10 A3000 RMK AO2 SLP156 T01500100
KPEO 221153Z AUTO 00000KT 10SM CLR 13/09 A2999 RMK AO2 SLP153 T01330089 10133 20083 53004
KPEO 221053Z AUTO 22004KT 10SM CLR 12/09 A2998 RMK AO2 SLP151 T01170094
KPEO 220953Z AUTO 00000KT 10SM CLR 09/07 A2997 RMK AO2 SLP149 T00890072
KPEO 220853Z AUTO 22006KT 10SM CLR 11/09 A2998 RMK AO2 SLP149 T01060089 53000
KPEO 220753Z AUTO 00000KT 10SM CLR 09/07 A2996 RMK AO2 SLP145 T00940072
KPEO 220653Z AUTO 00000KT 10SM CLR 09/06 A2997 RMK AO2 SLP148 T00890061
KPEO 220553Z AUTO 00000KT 10SM CLR 09/06 A2997 RMK AO2 SLP148 T00940056 10194 20094 53001
KPEO 220453Z AUTO 10SM CLR 11/06 A2997 RMK AO2 SLP148 T01110061 402330106
KPEO 220353Z AUTO 00000KT 10SM CLR 14/06 A2997 RMK AO2 SLP146 T01390061
KPEO 220253Z AUTO 00000KT 10SM CLR 14/06 A2997 RMK AO2 SLP146 T01440056 53014
KPEO 220153Z AUTO 00000KT 10SM CLR 14/05 A2996 RMK AO2 SLP142 T01390050
KPEO 220053Z AUTO 35003KT 10SM CLR 17/03 A2994 RMK AO2 SLP135 T01720033
KPEO 212353Z AUTO 00000KT 10SM CLR 19/02 A2993 RMK AO2 SLP132 T01940017 10233 20194 53006
KPEO 212253Z AUTO 35008KT 10SM CLR 21/03 A2992 RMK AO2 SLP129 T02060033
KPEO 212153Z AUTO 35007KT 10SM CLR 22/04 A2991 RMK AO2 SLP126 T02170039
KPEO 212053Z AUTO VRB06KT 10SM CLR 21/08 A2992 RMK AO2 SLP127 T02110083 53003
KPEO 211953Z AUTO VRB05KT 10SM CLR 22/10 A2991 RMK AO2 SLP124 T02220100
KPEO 211853Z AUTO 35008KT 330V060 10SM CLR 23/12 A2990 RMK AO2 SLP122 T02330117
KPEO 211753Z AUTO VRB05KT 10SM CLR 22/12 A2991 RMK AO2 SLP122 T02220122 10222 20167 58000
KPEO 211653Z AUTO 34008KT 310V040 10SM FEW027 22/13 A2991 RMK AO2 SLP125 T02170128
KPEO 211603Z AUTO VRB06KT 10SM SCT023 21/13 A2991 RMK AO2 T02110133
KPEO 211553Z AUTO 33007KT 10SM BKN023 21/13 A2991 RMK AO2 SLP125 T02060133
KPEO 211511Z AUTO 34007KT 280V040 10SM BKN024 21/13 A2991 RMK AO2 T02060133 PWINO $
KPEO 211453Z AUTO 10SM SCT023 21/13 A2991 RMK AO2 SLP122 T02110128 51010 PWINO $
KPEO 211353Z AUTO 35007KT 310V030 10SM CLR 21/13 A2989 RMK AO2 SLP117 T02060133
KPEO 211253Z AUTO VRB03KT 10SM CLR 19/12 A2989 RMK AO2 SLP118 T01940117
KPEO 211153Z AUTO 00000KT 10SM CLR 17/14 A2988 RMK AO2 SLP112 T01670139 10167 20122 53016
KPEO 211053Z AUTO 00000KT 10SM CLR 14/13 A2986 RMK AO2 SLP106 T01440128